sensor_id;sensor_type;location;lat;lon;timestamp;P1;durP1;ratioP1;P2;durP2;ratioP2
48526;SDS011;34317;51.660;5.824;2023-04-01T00:01:29;3.75;;;1.20;;
48526;SDS011;34317;51.660;5.824;2023-04-01T00:03:57;3.00;;;1.48;;
48526;SDS011;34317;51.660;5.824;2023-04-01T00:06:24;3.25;;;1.40;;
48526;SDS011;34317;51.660;5.824;2023-04-01T00:08:51;3.28;;;1.23;;
48526;SDS011;34317;51.660;5.824;2023-04-01T00:11:21;5.43;;;1.33;;
48526;SDS011;34317;51.660;5.824;2023-04-01T00:13:48;4.78;;;1.45;;
48526;SDS011;34317;51.660;5.824;2023-04-01T00:16:16;3.97;;;1.08;;
48526;SDS011;34317;51.660;5.824;2023-04-01T00:18:48;3.95;;;1.58;;
48526;SDS011;34317;51.660;5.824;2023-04-01T00:21:16;5.40;;;1.50;;
48526;SDS011;34317;51.660;5.824;2023-04-01T00:23:44;4.75;;;1.52;;
48526;SDS011;34317;51.660;5.824;2023-04-01T00:26:11;4.85;;;1.50;;
48526;SDS011;34317;51.660;5.824;2023-04-01T00:28:39;5.68;;;1.33;;
48526;SDS011;34317;51.660;5.824;2023-04-01T00:31:08;4.07;;;1.15;;
48526;SDS011;34317;51.660;5.824;2023-04-01T00:33:37;3.63;;;1.20;;
48526;SDS011;34317;51.660;5.824;2023-04-01T00:36:06;3.10;;;1.30;;
48526;SDS011;34317;51.660;5.824;2023-04-01T00:38:38;3.53;;;1.45;;
48526;SDS011;34317;51.660;5.824;2023-04-01T00:41:05;2.88;;;1.02;;
48526;SDS011;34317;51.660;5.824;2023-04-01T00:43:32;2.33;;;1.00;;
48526;SDS011;34317;51.660;5.824;2023-04-01T00:46:00;3.90;;;1.15;;
48526;SDS011;34317;51.660;5.824;2023-04-01T00:48:33;4.32;;;1.20;;
48526;SDS011;34317;51.660;5.824;2023-04-01T00:51:04;2.58;;;1.10;;
48526;SDS011;34317;51.660;5.824;2023-04-01T00:53:38;3.72;;;1.45;;
48526;SDS011;34317;51.660;5.824;2023-04-01T00:56:14;5.78;;;1.25;;
48526;SDS011;34317;51.660;5.824;2023-04-01T00:58:46;3.10;;;1.30;;
48526;SDS011;34317;51.660;5.824;2023-04-01T01:01:18;2.90;;;1.30;;
48526;SDS011;34317;51.660;5.824;2023-04-01T01:03:47;4.65;;;1.48;;
48526;SDS011;34317;51.660;5.824;2023-04-01T01:11:42;5.75;;;1.60;;
48526;SDS011;34317;51.660;5.824;2023-04-01T01:16:46;3.72;;;1.90;;
48526;SDS011;34317;51.660;5.824;2023-04-01T01:19:38;5.22;;;1.90;;
48526;SDS011;34317;51.660;5.824;2023-04-01T01:27:48;5.18;;;2.30;;
48526;SDS011;34317;51.660;5.824;2023-04-01T01:30:26;4.82;;;2.10;;
48526;SDS011;34317;51.660;5.824;2023-04-01T01:33:24;3.60;;;1.97;;
48526;SDS011;34317;51.660;5.824;2023-04-01T01:36:15;6.25;;;2.17;;
48526;SDS011;34317;51.660;5.824;2023-04-01T01:38:43;4.13;;;2.28;;
48526;SDS011;34317;51.660;5.824;2023-04-01T01:41:12;3.10;;;2.70;;
48526;SDS011;34317;51.660;5.824;2023-04-01T01:43:44;3.30;;;2.15;;
48526;SDS011;34317;51.660;5.824;2023-04-01T01:46:17;4.03;;;2.50;;
48526;SDS011;34317;51.660;5.824;2023-04-01T01:48:49;3.42;;;2.60;;
48526;SDS011;34317;51.660;5.824;2023-04-01T01:51:18;3.22;;;2.70;;
48526;SDS011;34317;51.660;5.824;2023-04-01T01:53:48;3.30;;;3.00;;
48526;SDS011;34317;51.660;5.824;2023-04-01T01:56:17;3.80;;;2.80;;
48526;SDS011;34317;51.660;5.824;2023-04-01T01:58:51;4.35;;;2.85;;
48526;SDS011;34317;51.660;5.824;2023-04-01T02:01:23;3.33;;;2.75;;
48526;SDS011;34317;51.660;5.824;2023-04-01T02:03:55;5.47;;;2.90;;
48526;SDS011;34317;51.660;5.824;2023-04-01T02:06:26;3.72;;;3.13;;
48526;SDS011;34317;51.660;5.824;2023-04-01T02:08:59;3.95;;;3.42;;
48526;SDS011;34317;51.660;5.824;2023-04-01T02:11:30;4.60;;;3.40;;
48526;SDS011;34317;51.660;5.824;2023-04-01T02:14:02;5.47;;;3.38;;
48526;SDS011;34317;51.660;5.824;2023-04-01T02:16:42;4.45;;;3.53;;
48526;SDS011;34317;51.660;5.824;2023-04-01T02:19:16;5.07;;;3.88;;
48526;SDS011;34317;51.660;5.824;2023-04-01T02:21:50;4.15;;;3.63;;
48526;SDS011;34317;51.660;5.824;2023-04-01T02:24:22;4.97;;;3.55;;
48526;SDS011;34317;51.660;5.824;2023-04-01T02:26:51;4.88;;;3.83;;
48526;SDS011;34317;51.660;5.824;2023-04-01T02:29:19;5.15;;;4.28;;
48526;SDS011;34317;51.660;5.824;2023-04-01T02:31:49;6.30;;;4.55;;
48526;SDS011;34317;51.660;5.824;2023-04-01T02:34:18;5.95;;;4.65;;
48526;SDS011;34317;51.660;5.824;2023-04-01T02:36:46;7.63;;;5.47;;
48526;SDS011;34317;51.660;5.824;2023-04-01T02:39:15;7.65;;;5.78;;
48526;SDS011;34317;51.660;5.824;2023-04-01T02:41:43;9.13;;;5.50;;
48526;SDS011;34317;51.660;5.824;2023-04-01T02:44:12;7.68;;;5.28;;
48526;SDS011;34317;51.660;5.824;2023-04-01T02:46:42;6.85;;;5.25;;
48526;SDS011;34317;51.660;5.824;2023-04-01T02:49:10;6.30;;;5.05;;
48526;SDS011;34317;51.660;5.824;2023-04-01T02:51:37;6.95;;;5.18;;
48526;SDS011;34317;51.660;5.824;2023-04-01T02:54:04;5.05;;;4.28;;
48526;SDS011;34317;51.660;5.824;2023-04-01T02:56:32;5.93;;;4.80;;
48526;SDS011;34317;51.660;5.824;2023-04-01T02:58:59;5.38;;;4.25;;
48526;SDS011;34317;51.660;5.824;2023-04-01T03:01:26;6.18;;;4.10;;
48526;SDS011;34317;51.660;5.824;2023-04-01T03:03:53;6.95;;;4.40;;
48526;SDS011;34317;51.660;5.824;2023-04-01T03:06:20;6.18;;;4.35;;
48526;SDS011;34317;51.660;5.824;2023-04-01T03:08:48;7.28;;;4.75;;
48526;SDS011;34317;51.660;5.824;2023-04-01T03:11:15;6.78;;;4.70;;
48526;SDS011;34317;51.660;5.824;2023-04-01T03:13:42;7.47;;;5.32;;
48526;SDS011;34317;51.660;5.824;2023-04-01T03:16:10;7.15;;;5.88;;
48526;SDS011;34317;51.660;5.824;2023-04-01T03:18:37;7.68;;;5.88;;
48526;SDS011;34317;51.660;5.824;2023-04-01T03:21:14;7.50;;;5.82;;
48526;SDS011;34317;51.660;5.824;2023-04-01T03:23:46;9.85;;;6.47;;
48526;SDS011;34317;51.660;5.824;2023-04-01T03:26:13;9.82;;;6.43;;
48526;SDS011;34317;51.660;5.824;2023-04-01T03:28:41;9.32;;;6.72;;
48526;SDS011;34317;51.660;5.824;2023-04-01T03:31:08;9.30;;;6.95;;
48526;SDS011;34317;51.660;5.824;2023-04-01T03:33:42;9.43;;;6.75;;
48526;SDS011;34317;51.660;5.824;2023-04-01T03:36:09;9.80;;;6.68;;
48526;SDS011;34317;51.660;5.824;2023-04-01T03:38:40;10.25;;;6.95;;
48526;SDS011;34317;51.660;5.824;2023-04-01T03:41:11;10.00;;;7.03;;
48526;SDS011;34317;51.660;5.824;2023-04-01T03:43:40;10.65;;;7.68;;
48526;SDS011;34317;51.660;5.824;2023-04-01T03:46:10;11.65;;;7.72;;
48526;SDS011;34317;51.660;5.824;2023-04-01T03:48:37;13.18;;;8.13;;
48526;SDS011;34317;51.660;5.824;2023-04-01T03:51:08;10.13;;;7.07;;
48526;SDS011;34317;51.660;5.824;2023-04-01T03:53:35;11.00;;;7.68;;
48526;SDS011;34317;51.660;5.824;2023-04-01T03:56:05;10.60;;;7.55;;
48526;SDS011;34317;51.660;5.824;2023-04-01T03:58:35;10.32;;;7.38;;
48526;SDS011;34317;51.660;5.824;2023-04-01T04:01:18;11.02;;;7.70;;
48526;SDS011;34317;51.660;5.824;2023-04-01T04:03:50;11.10;;;7.80;;
48526;SDS011;34317;51.660;5.824;2023-04-01T04:06:18;10.45;;;7.10;;
48526;SDS011;34317;51.660;5.824;2023-04-01T04:08:47;9.63;;;7.05;;
48526;SDS011;34317;51.660;5.824;2023-04-01T04:11:14;12.43;;;7.35;;
48526;SDS011;34317;51.660;5.824;2023-04-01T04:13:42;10.68;;;6.68;;
48526;SDS011;34317;51.660;5.824;2023-04-01T04:16:11;10.48;;;6.80;;
48526;SDS011;34317;51.660;5.824;2023-04-01T04:18:43;10.60;;;6.32;;
48526;SDS011;34317;51.660;5.824;2023-04-01T04:21:13;11.07;;;6.10;;
48526;SDS011;34317;51.660;5.824;2023-04-01T04:23:42;8.80;;;5.63;;
48526;SDS011;34317;51.660;5.824;2023-04-01T04:26:11;9.40;;;6.10;;
48526;SDS011;34317;51.660;5.824;2023-04-01T04:28:46;8.43;;;5.75;;
48526;SDS011;34317;51.660;5.824;2023-04-01T04:31:21;8.32;;;5.45;;
48526;SDS011;34317;51.660;5.824;2023-04-01T04:33:52;6.68;;;4.30;;
48526;SDS011;34317;51.660;5.824;2023-04-01T04:36:20;6.50;;;4.40;;
48526;SDS011;34317;51.660;5.824;2023-04-01T04:38:50;5.68;;;4.18;;
48526;SDS011;34317;51.660;5.824;2023-04-01T04:41:17;5.50;;;3.83;;
48526;SDS011;34317;51.660;5.824;2023-04-01T04:43:49;4.93;;;3.67;;
48526;SDS011;34317;51.660;5.824;2023-04-01T04:46:22;5.95;;;3.85;;
48526;SDS011;34317;51.660;5.824;2023-04-01T04:48:55;6.65;;;4.25;;
48526;SDS011;34317;51.660;5.824;2023-04-01T04:51:23;5.43;;;4.00;;
48526;SDS011;34317;51.660;5.824;2023-04-01T04:53:50;6.82;;;4.40;;
48526;SDS011;34317;51.660;5.824;2023-04-01T04:56:22;4.93;;;4.15;;
48526;SDS011;34317;51.660;5.824;2023-04-01T04:58:58;5.38;;;3.50;;
48526;SDS011;34317;51.660;5.824;2023-04-01T05:01:39;4.85;;;3.88;;
48526;SDS011;34317;51.660;5.824;2023-04-01T05:04:07;5.15;;;3.45;;
48526;SDS011;34317;51.660;5.824;2023-04-01T05:06:34;4.13;;;3.35;;
48526;SDS011;34317;51.660;5.824;2023-04-01T05:09:01;7.30;;;3.45;;
48526;SDS011;34317;51.660;5.824;2023-04-01T05:11:29;4.20;;;3.10;;
48526;SDS011;34317;51.660;5.824;2023-04-01T05:13:56;6.93;;;3.38;;
48526;SDS011;34317;51.660;5.824;2023-04-01T05:16:23;5.05;;;3.67;;
48526;SDS011;34317;51.660;5.824;2023-04-01T05:18:51;7.05;;;3.50;;
48526;SDS011;34317;51.660;5.824;2023-04-01T05:21:18;6.43;;;3.60;;
48526;SDS011;34317;51.660;5.824;2023-04-01T05:23:45;4.38;;;3.05;;
48526;SDS011;34317;51.660;5.824;2023-04-01T05:26:13;5.32;;;3.72;;
48526;SDS011;34317;51.660;5.824;2023-04-01T05:28:42;5.97;;;3.53;;
48526;SDS011;34317;51.660;5.824;2023-04-01T05:31:09;4.43;;;3.20;;
48526;SDS011;34317;51.660;5.824;2023-04-01T05:33:42;5.00;;;3.50;;
48526;SDS011;34317;51.660;5.824;2023-04-01T05:36:10;4.65;;;3.53;;
48526;SDS011;34317;51.660;5.824;2023-04-01T05:38:43;6.80;;;3.67;;
48526;SDS011;34317;51.660;5.824;2023-04-01T05:41:13;5.07;;;3.70;;
48526;SDS011;34317;51.660;5.824;2023-04-01T05:43:44;5.65;;;3.97;;
48526;SDS011;34317;51.660;5.824;2023-04-01T05:46:32;5.50;;;4.30;;
48526;SDS011;34317;51.660;5.824;2023-04-01T05:49:09;6.22;;;4.30;;
48526;SDS011;34317;51.660;5.824;2023-04-01T05:51:37;9.48;;;4.45;;
48526;SDS011;34317;51.660;5.824;2023-04-01T05:54:05;5.93;;;4.28;;
48526;SDS011;34317;51.660;5.824;2023-04-01T05:56:33;6.13;;;4.43;;
48526;SDS011;34317;51.660;5.824;2023-04-01T05:59:00;7.90;;;4.65;;
48526;SDS011;34317;51.660;5.824;2023-04-01T06:01:28;6.88;;;5.05;;
48526;SDS011;34317;51.660;5.824;2023-04-01T06:03:55;7.30;;;4.82;;
48526;SDS011;34317;51.660;5.824;2023-04-01T06:06:24;6.85;;;5.10;;
48526;SDS011;34317;51.660;5.824;2023-04-01T06:09:00;8.40;;;5.30;;
48526;SDS011;34317;51.660;5.824;2023-04-01T06:17:02;9.30;;;6.20;;
48526;SDS011;34317;51.660;5.824;2023-04-01T06:20:04;9.10;;;5.95;;
48526;SDS011;34317;51.660;5.824;2023-04-01T06:22:49;10.07;;;6.25;;
48526;SDS011;34317;51.660;5.824;2023-04-01T06:25:48;9.60;;;6.18;;
48526;SDS011;34317;51.660;5.824;2023-04-01T06:44:58;12.23;;;8.05;;
48526;SDS011;34317;51.660;5.824;2023-04-01T06:48:15;14.55;;;8.60;;
48526;SDS011;34317;51.660;5.824;2023-04-01T06:51:33;14.43;;;8.13;;
48526;SDS011;34317;51.660;5.824;2023-04-01T06:54:42;14.23;;;7.85;;
48526;SDS011;34317;51.660;5.824;2023-04-01T06:57:51;13.60;;;7.93;;
48526;SDS011;34317;51.660;5.824;2023-04-01T07:00:39;14.85;;;8.02;;
48526;SDS011;34317;51.660;5.824;2023-04-01T07:03:16;14.32;;;8.70;;
48526;SDS011;34317;51.660;5.824;2023-04-01T07:05:50;12.80;;;7.72;;
48526;SDS011;34317;51.660;5.824;2023-04-01T07:08:21;14.93;;;8.00;;
48526;SDS011;34317;51.660;5.824;2023-04-01T07:11:01;12.23;;;7.95;;
48526;SDS011;34317;51.660;5.824;2023-04-01T07:13:54;13.55;;;7.60;;
48526;SDS011;34317;51.660;5.824;2023-04-01T07:16:31;13.13;;;7.57;;
48526;SDS011;34317;51.660;5.824;2023-04-01T07:22:05;12.45;;;7.50;;
48526;SDS011;34317;51.660;5.824;2023-04-01T07:28:16;13.30;;;7.95;;
48526;SDS011;34317;51.660;5.824;2023-04-01T07:31:00;14.45;;;8.05;;
48526;SDS011;34317;51.660;5.824;2023-04-01T07:34:03;13.70;;;8.40;;
48526;SDS011;34317;51.660;5.824;2023-04-01T07:36:46;15.90;;;8.27;;
48526;SDS011;34317;51.660;5.824;2023-04-01T07:42:39;15.00;;;8.95;;
48526;SDS011;34317;51.660;5.824;2023-04-01T07:56:29;15.68;;;9.55;;
48526;SDS011;34317;51.660;5.824;2023-04-01T08:04:49;17.08;;;10.00;;
48526;SDS011;34317;51.660;5.824;2023-04-01T08:07:31;17.23;;;9.20;;
48526;SDS011;34317;51.660;5.824;2023-04-01T08:10:41;16.33;;;8.40;;
48526;SDS011;34317;51.660;5.824;2023-04-01T08:13:46;15.68;;;8.73;;
48526;SDS011;34317;51.660;5.824;2023-04-01T08:19:46;13.55;;;8.43;;
48526;SDS011;34317;51.660;5.824;2023-04-01T08:22:42;16.90;;;8.82;;
48526;SDS011;34317;51.660;5.824;2023-04-01T08:25:26;14.63;;;7.65;;
48526;SDS011;34317;51.660;5.824;2023-04-01T08:27:58;13.52;;;7.50;;
48526;SDS011;34317;51.660;5.824;2023-04-01T08:30:38;12.50;;;7.25;;
48526;SDS011;34317;51.660;5.824;2023-04-01T08:33:13;13.23;;;6.82;;
48526;SDS011;34317;51.660;5.824;2023-04-01T08:35:53;13.98;;;6.55;;
48526;SDS011;34317;51.660;5.824;2023-04-01T08:38:28;11.18;;;5.72;;
48526;SDS011;34317;51.660;5.824;2023-04-01T08:50:06;13.73;;;5.90;;
48526;SDS011;34317;51.660;5.824;2023-04-01T08:58:51;12.70;;;6.13;;
48526;SDS011;34317;51.660;5.824;2023-04-01T09:13:56;9.80;;;6.40;;
48526;SDS011;34317;51.660;5.824;2023-04-01T09:16:59;12.05;;;6.80;;
48526;SDS011;34317;51.660;5.824;2023-04-01T09:25:02;13.25;;;7.30;;
48526;SDS011;34317;51.660;5.824;2023-04-01T09:27:51;16.25;;;7.43;;
48526;SDS011;34317;51.660;5.824;2023-04-01T09:30:31;14.63;;;7.53;;
48526;SDS011;34317;51.660;5.824;2023-04-01T09:49:20;16.20;;;8.60;;
48526;SDS011;34317;51.660;5.824;2023-04-01T10:18:07;13.93;;;7.20;;
48526;SDS011;34317;51.660;5.824;2023-04-01T10:20:55;12.95;;;7.55;;
48526;SDS011;34317;51.660;5.824;2023-04-01T10:23:45;13.88;;;7.47;;
48526;SDS011;34317;51.660;5.824;2023-04-01T10:26:29;12.60;;;7.97;;
48526;SDS011;34317;51.660;5.824;2023-04-01T10:29:53;10.13;;;6.80;;
48526;SDS011;34317;51.660;5.824;2023-04-01T10:33:06;9.98;;;6.85;;
48526;SDS011;34317;51.660;5.824;2023-04-01T10:51:09;10.52;;;6.65;;
48526;SDS011;34317;51.660;5.824;2023-04-01T10:54:14;11.73;;;6.65;;
48526;SDS011;34317;51.660;5.824;2023-04-01T11:17:55;12.23;;;6.57;;
48526;SDS011;34317;51.660;5.824;2023-04-01T11:41:32;7.78;;;4.63;;
48526;SDS011;34317;51.660;5.824;2023-04-01T11:44:25;6.30;;;4.30;;
48526;SDS011;34317;51.660;5.824;2023-04-01T11:50:52;7.00;;;4.32;;
48526;SDS011;34317;51.660;5.824;2023-04-01T11:53:04;8.40;;;5.47;;
48526;SDS011;34317;51.660;5.824;2023-04-01T12:10:02;11.63;;;6.40;;
48526;SDS011;34317;51.660;5.824;2023-04-01T12:23:45;11.23;;;7.10;;
48526;SDS011;34317;51.660;5.824;2023-04-01T12:26:36;12.05;;;6.70;;
48526;SDS011;34317;51.660;5.824;2023-04-01T12:34:43;10.48;;;6.03;;
48526;SDS011;34317;51.660;5.824;2023-04-01T12:40:04;9.10;;;4.93;;
48526;SDS011;34317;51.660;5.824;2023-04-01T12:48:12;7.03;;;5.07;;
48526;SDS011;34317;51.660;5.824;2023-04-01T13:02:12;6.22;;;4.07;;
48526;SDS011;34317;51.660;5.824;2023-04-01T13:04:56;6.85;;;4.32;;
48526;SDS011;34317;51.660;5.824;2023-04-01T13:07:31;6.88;;;4.35;;
48526;SDS011;34317;51.660;5.824;2023-04-01T13:10:13;5.90;;;4.60;;
48526;SDS011;34317;51.660;5.824;2023-04-01T13:23:54;6.22;;;4.10;;
48526;SDS011;34317;51.660;5.824;2023-04-01T13:26:34;6.10;;;4.13;;
48526;SDS011;34317;51.660;5.824;2023-04-01T13:32:26;5.90;;;4.40;;
48526;SDS011;34317;51.660;5.824;2023-04-01T13:37:42;7.95;;;4.47;;
48526;SDS011;34317;51.660;5.824;2023-04-01T13:40:20;8.60;;;4.70;;
48526;SDS011;34317;51.660;5.824;2023-04-01T13:43:17;7.60;;;4.45;;
48526;SDS011;34317;51.660;5.824;2023-04-01T13:53:59;7.45;;;3.92;;
48526;SDS011;34317;51.660;5.824;2023-04-01T14:00:12;7.28;;;4.05;;
48526;SDS011;34317;51.660;5.824;2023-04-01T14:02:57;8.68;;;4.30;;
48526;SDS011;34317;51.660;5.824;2023-04-01T14:05:54;6.68;;;4.68;;
48526;SDS011;34317;51.660;5.824;2023-04-01T14:11:56;8.30;;;4.93;;
48526;SDS011;34317;51.660;5.824;2023-04-01T14:14:40;7.00;;;4.67;;
48526;SDS011;34317;51.660;5.824;2023-04-01T14:23:13;8.60;;;5.43;;
48526;SDS011;34317;51.660;5.824;2023-04-01T14:39:29;7.78;;;4.97;;
48526;SDS011;34317;51.660;5.824;2023-04-01T14:42:23;7.30;;;4.78;;
48526;SDS011;34317;51.660;5.824;2023-04-01T14:45:25;7.95;;;5.40;;
48526;SDS011;34317;51.660;5.824;2023-04-01T14:48:25;8.77;;;5.85;;
48526;SDS011;34317;51.660;5.824;2023-04-01T14:51:03;9.50;;;5.93;;
48526;SDS011;34317;51.660;5.824;2023-04-01T14:53:43;12.20;;;6.70;;
48526;SDS011;34317;51.660;5.824;2023-04-01T14:59:07;9.32;;;6.50;;
48526;SDS011;34317;51.660;5.824;2023-04-01T15:07:06;8.50;;;6.40;;
48526;SDS011;34317;51.660;5.824;2023-04-01T15:12:57;10.30;;;6.70;;
48526;SDS011;34317;51.660;5.824;2023-04-01T15:15:39;12.88;;;7.38;;
48526;SDS011;34317;51.660;5.824;2023-04-01T15:18:24;10.60;;;6.68;;
48526;SDS011;34317;51.660;5.824;2023-04-01T15:26:54;10.45;;;6.75;;
48526;SDS011;34317;51.660;5.824;2023-04-01T15:29:32;8.68;;;6.10;;
48526;SDS011;34317;51.660;5.824;2023-04-01T15:37:53;7.97;;;5.65;;
48526;SDS011;34317;51.660;5.824;2023-04-01T15:40:25;9.60;;;6.47;;
48526;SDS011;34317;51.660;5.824;2023-04-01T15:53:37;12.68;;;7.05;;
48526;SDS011;34317;51.660;5.824;2023-04-01T15:56:28;9.45;;;6.70;;
48526;SDS011;34317;51.660;5.824;2023-04-01T15:59:14;10.50;;;6.57;;
48526;SDS011;34317;51.660;5.824;2023-04-01T16:01:56;10.07;;;7.18;;
48526;SDS011;34317;51.660;5.824;2023-04-01T16:04:35;11.23;;;7.25;;
48526;SDS011;34317;51.660;5.824;2023-04-01T16:15:43;10.82;;;7.18;;
48526;SDS011;34317;51.660;5.824;2023-04-01T16:18:32;8.20;;;6.40;;
48526;SDS011;34317;51.660;5.824;2023-04-01T16:21:14;9.95;;;6.63;;
48526;SDS011;34317;51.660;5.824;2023-04-01T16:29:51;10.02;;;6.65;;
48526;SDS011;34317;51.660;5.824;2023-04-01T16:38:12;8.57;;;6.30;;
48526;SDS011;34317;51.660;5.824;2023-04-01T16:40:58;9.63;;;6.45;;
48526;SDS011;34317;51.660;5.824;2023-04-01T16:43:28;9.82;;;6.57;;
48526;SDS011;34317;51.660;5.824;2023-04-01T16:48:52;10.25;;;6.78;;
48526;SDS011;34317;51.660;5.824;2023-04-01T16:51:52;10.20;;;6.50;;
48526;SDS011;34317;51.660;5.824;2023-04-01T16:54:36;9.15;;;6.05;;
48526;SDS011;34317;51.660;5.824;2023-04-01T16:59:40;9.88;;;6.95;;
48526;SDS011;34317;51.660;5.824;2023-04-01T17:02:16;10.05;;;6.50;;
48526;SDS011;34317;51.660;5.824;2023-04-01T17:33:17;4.07;;;2.60;;
48526;SDS011;34317;51.660;5.824;2023-04-01T17:35:59;3.00;;;2.35;;
48526;SDS011;34317;51.660;5.824;2023-04-01T17:52:30;4.78;;;3.17;;
48526;SDS011;34317;51.660;5.824;2023-04-01T18:00:39;3.40;;;2.85;;
48526;SDS011;34317;51.660;5.824;2023-04-01T18:06:19;3.58;;;2.88;;
48526;SDS011;34317;51.660;5.824;2023-04-01T18:11:32;3.55;;;3.03;;
48526;SDS011;34317;51.660;5.824;2023-04-01T18:14:07;3.78;;;3.00;;
48526;SDS011;34317;51.660;5.824;2023-04-01T18:22:28;4.10;;;3.30;;
48526;SDS011;34317;51.660;5.824;2023-04-01T18:27:47;5.20;;;3.90;;
48526;SDS011;34317;51.660;5.824;2023-04-01T18:30:28;5.47;;;4.53;;
48526;SDS011;34317;51.660;5.824;2023-04-01T18:33:09;6.20;;;4.75;;
48526;SDS011;34317;51.660;5.824;2023-04-01T18:38:29;7.57;;;4.95;;
48526;SDS011;34317;51.660;5.824;2023-04-01T18:46:33;6.22;;;4.90;;
48526;SDS011;34317;51.660;5.824;2023-04-01T18:52:44;6.68;;;5.10;;
48526;SDS011;34317;51.660;5.824;2023-04-01T18:57:41;7.35;;;5.65;;
48526;SDS011;34317;51.660;5.824;2023-04-01T19:00:28;6.80;;;5.88;;
48526;SDS011;34317;51.660;5.824;2023-04-01T19:05:44;9.48;;;5.72;;
48526;SDS011;34317;51.660;5.824;2023-04-01T19:08:25;6.90;;;5.95;;
48526;SDS011;34317;51.660;5.824;2023-04-01T19:13:54;7.85;;;6.30;;
48526;SDS011;34317;51.660;5.824;2023-04-01T19:21:44;8.25;;;6.97;;
48526;SDS011;34317;51.660;5.824;2023-04-01T19:26:58;8.30;;;6.93;;
48526;SDS011;34317;51.660;5.824;2023-04-01T19:32:08;8.65;;;6.80;;
48526;SDS011;34317;51.660;5.824;2023-04-01T19:34:49;8.50;;;6.78;;
48526;SDS011;34317;51.660;5.824;2023-04-01T19:37:39;8.50;;;6.97;;
48526;SDS011;34317;51.660;5.824;2023-04-01T19:43:03;7.73;;;6.63;;
48526;SDS011;34317;51.660;5.824;2023-04-01T19:45:51;7.25;;;6.43;;
48526;SDS011;34317;51.660;5.824;2023-04-01T19:56:20;7.53;;;6.25;;
48526;SDS011;34317;51.660;5.824;2023-04-01T20:01:47;6.75;;;5.72;;
48526;SDS011;34317;51.660;5.824;2023-04-01T20:04:34;6.40;;;5.00;;
48526;SDS011;34317;51.660;5.824;2023-04-01T20:07:13;7.00;;;5.53;;
48526;SDS011;34317;51.660;5.824;2023-04-01T20:10:32;7.97;;;6.00;;
48526;SDS011;34317;51.660;5.824;2023-04-01T20:13:06;8.20;;;6.50;;
48526;SDS011;34317;51.660;5.824;2023-04-01T20:15:47;9.43;;;7.00;;
48526;SDS011;34317;51.660;5.824;2023-04-01T20:21:01;9.65;;;7.90;;
48526;SDS011;34317;51.660;5.824;2023-04-01T20:23:43;9.10;;;7.70;;
48526;SDS011;34317;51.660;5.824;2023-04-01T20:26:23;8.88;;;7.72;;
48526;SDS011;34317;51.660;5.824;2023-04-01T20:32:43;8.95;;;7.63;;
48526;SDS011;34317;51.660;5.824;2023-04-01T20:35:28;8.23;;;7.28;;
48526;SDS011;34317;51.660;5.824;2023-04-01T20:40:49;8.07;;;6.85;;
48526;SDS011;34317;51.660;5.824;2023-04-01T20:46:22;6.15;;;5.50;;
48526;SDS011;34317;51.660;5.824;2023-04-01T20:51:53;7.82;;;6.22;;
48526;SDS011;34317;51.660;5.824;2023-04-01T21:02:32;8.95;;;6.90;;
48526;SDS011;34317;51.660;5.824;2023-04-01T21:10:54;9.90;;;6.80;;
48526;SDS011;34317;51.660;5.824;2023-04-01T21:19:12;7.07;;;6.05;;
48526;SDS011;34317;51.660;5.824;2023-04-01T21:33:17;9.48;;;7.40;;
48526;SDS011;34317;51.660;5.824;2023-04-01T22:04:22;9.45;;;7.47;;
48526;SDS011;34317;51.660;5.824;2023-04-01T22:07:29;8.25;;;6.63;;
48526;SDS011;34317;51.660;5.824;2023-04-01T22:10:23;8.70;;;7.15;;
48526;SDS011;34317;51.660;5.824;2023-04-01T22:16:02;7.93;;;6.70;;
48526;SDS011;34317;51.660;5.824;2023-04-01T22:18:50;7.72;;;6.55;;
48526;SDS011;34317;51.660;5.824;2023-04-01T22:21:44;8.15;;;6.00;;
48526;SDS011;34317;51.660;5.824;2023-04-01T22:30:12;6.95;;;6.00;;
48526;SDS011;34317;51.660;5.824;2023-04-01T22:44:51;6.00;;;5.40;;
48526;SDS011;34317;51.660;5.824;2023-04-01T22:47:40;5.90;;;5.15;;
48526;SDS011;34317;51.660;5.824;2023-04-01T22:50:26;6.45;;;5.30;;
48526;SDS011;34317;51.660;5.824;2023-04-01T22:55:53;6.50;;;5.05;;
48526;SDS011;34317;51.660;5.824;2023-04-01T22:58:43;5.65;;;4.78;;
48526;SDS011;34317;51.660;5.824;2023-04-01T23:01:19;5.80;;;4.97;;
48526;SDS011;34317;51.660;5.824;2023-04-01T23:03:55;5.80;;;5.07;;
48526;SDS011;34317;51.660;5.824;2023-04-01T23:06:28;6.35;;;4.63;;
48526;SDS011;34317;51.660;5.824;2023-04-01T23:12:09;7.80;;;6.43;;
48526;SDS011;34317;51.660;5.824;2023-04-01T23:14:47;9.93;;;6.70;;
48526;SDS011;34317;51.660;5.824;2023-04-01T23:20:18;9.23;;;7.63;;
48526;SDS011;34317;51.660;5.824;2023-04-01T23:28:52;6.20;;;5.20;;
48526;SDS011;34317;51.660;5.824;2023-04-01T23:36:29;4.90;;;4.28;;
48526;SDS011;34317;51.660;5.824;2023-04-01T23:39:05;5.60;;;4.50;;
48526;SDS011;34317;51.660;5.824;2023-04-01T23:41:48;6.55;;;5.20;;
48526;SDS011;34317;51.660;5.824;2023-04-01T23:44:17;7.15;;;5.60;;
48526;SDS011;34317;51.660;5.824;2023-04-01T23:46:45;6.75;;;5.55;;
48526;SDS011;34317;51.660;5.824;2023-04-01T23:49:17;7.30;;;5.78;;
48526;SDS011;34317;51.660;5.824;2023-04-01T23:51:49;6.93;;;5.72;;
48526;SDS011;34317;51.660;5.824;2023-04-01T23:54:24;6.20;;;5.53;;
48526;SDS011;34317;51.660;5.824;2023-04-01T23:56:58;8.65;;;5.70;;
48526;SDS011;34317;51.660;5.824;2023-04-01T23:59:29;6.03;;;5.38;;
